createdAt,value
2018-09-15T00:01:38.120Z,81.90
2018-09-15T00:04:08.966Z,82.00
2018-09-15T00:06:39.737Z,82.60
2018-09-15T00:09:10.966Z,81.50
2018-09-15T00:11:41.744Z,81.10
2018-09-15T00:14:12.545Z,81.00
2018-09-15T00:16:43.356Z,80.90
2018-09-15T00:19:14.276Z,80.50
2018-09-15T00:21:45.082Z,80.50
2018-09-15T00:24:15.843Z,80.60
2018-09-15T00:26:46.663Z,80.20
2018-09-15T00:29:17.459Z,80.00
2018-09-15T00:31:48.273Z,80.50
2018-09-15T00:34:19.098Z,80.40
2018-09-15T00:36:49.946Z,80.50
2018-09-15T00:39:20.962Z,80.90
2018-09-15T00:41:51.896Z,80.50
2018-09-15T00:44:22.636Z,80.60
2018-09-15T00:46:53.508Z,81.40
2018-09-15T00:49:24.549Z,81.60
2018-09-15T00:51:55.383Z,81.40
2018-09-15T00:54:26.172Z,81.20
2018-09-15T00:56:57.029Z,81.00
2018-09-15T00:59:27.936Z,80.90
2018-09-15T01:01:58.703Z,80.50
2018-09-15T01:04:29.709Z,80.90
2018-09-15T01:07:00.565Z,80.20
2018-09-15T01:09:31.459Z,81.10
2018-09-15T01:12:02.425Z,80.70
2018-09-15T01:14:33.214Z,81.00
2018-09-15T01:17:04.291Z,81.20
2018-09-15T01:19:35.215Z,81.30
2018-09-15T01:22:06.153Z,81.70
2018-09-15T01:24:37.034Z,81.20
2018-09-15T01:27:07.831Z,81.10
2018-09-15T01:29:38.740Z,81.10
2018-09-15T01:32:09.647Z,81.10
2018-09-15T01:34:40.570Z,80.70
2018-09-15T01:37:11.403Z,81.00
2018-09-15T01:39:42.412Z,81.10
2018-09-15T01:42:13.241Z,80.80
2018-09-15T01:44:44.111Z,80.70
2018-09-15T01:47:14.904Z,81.00
2018-09-15T01:49:45.732Z,80.60
2018-09-15T01:52:16.620Z,81.00
2018-09-15T01:54:47.984Z,81.30
2018-09-15T01:57:18.835Z,81.00
2018-09-15T01:59:49.605Z,80.80
2018-09-15T02:02:20.623Z,80.80
2018-09-15T02:04:51.417Z,80.60
2018-09-15T02:07:22.257Z,80.60
2018-09-15T02:09:53.129Z,80.80
2018-09-15T02:12:24.010Z,80.90
2018-09-15T02:14:54.844Z,80.70
2018-09-15T02:17:25.706Z,80.90
2018-09-15T02:19:56.574Z,81.00
2018-09-15T02:22:27.402Z,81.10
2018-09-15T02:24:58.194Z,81.90
2018-09-15T02:27:28.952Z,81.10
2018-09-15T02:29:59.724Z,81.10
2018-09-15T02:32:30.574Z,81.10
2018-09-15T02:35:01.445Z,80.80
2018-09-15T02:37:32.257Z,81.10
2018-09-15T02:40:03.120Z,81.40
2018-09-15T02:42:33.980Z,81.30
2018-09-15T02:45:04.964Z,81.40
2018-09-15T02:47:35.823Z,81.40
2018-09-15T02:50:07.263Z,81.10
2018-09-15T02:52:38.051Z,81.20
2018-09-15T02:55:08.903Z,81.40
2018-09-15T02:57:39.693Z,81.50
2018-09-15T03:00:10.542Z,81.60
2018-09-15T03:02:41.407Z,81.80
2018-09-15T03:05:12.200Z,81.60
2018-09-15T03:07:43.000Z,81.70
2018-09-15T03:10:13.784Z,81.70
2018-09-15T03:12:44.676Z,82.00
2018-09-15T03:15:15.483Z,81.90
2018-09-15T03:17:46.449Z,82.20
2018-09-15T03:20:17.448Z,82.50
2018-09-15T03:22:48.952Z,82.20
2018-09-15T03:25:19.846Z,82.10
2018-09-15T03:27:50.717Z,81.80
2018-09-15T03:30:21.628Z,81.90
2018-09-15T03:32:52.436Z,82.30
2018-09-15T03:35:23.300Z,82.40
2018-09-15T03:37:54.117Z,82.30
2018-09-15T03:40:24.900Z,82.10
2018-09-15T03:42:55.782Z,82.10
2018-09-15T03:45:26.593Z,82.20
2018-09-15T03:47:57.375Z,82.10
2018-09-15T03:50:28.279Z,82.10
2018-09-15T03:52:59.106Z,82.00
2018-09-15T03:55:29.927Z,82.00
2018-09-15T03:58:00.754Z,82.10
2018-09-15T04:00:31.580Z,82.10
2018-09-15T04:03:02.362Z,82.20
2018-09-15T04:05:33.180Z,82.40
2018-09-15T04:08:04.018Z,83.30
2018-09-15T04:10:34.857Z,82.60
2018-09-15T04:13:06.417Z,82.80
2018-09-15T04:15:37.275Z,83.00
2018-09-15T04:18:08.333Z,82.80
2018-09-15T04:20:39.194Z,82.80
2018-09-15T04:23:10.086Z,83.10
2018-09-15T04:25:40.896Z,83.80
2018-09-15T04:28:11.756Z,84.40
2018-09-15T04:30:43.132Z,84.50
2018-09-15T04:33:13.989Z,85.10
2018-09-15T04:35:44.852Z,85.80
2018-09-15T04:38:15.714Z,85.80
2018-09-15T04:40:46.614Z,86.00
2018-09-15T04:43:17.460Z,86.50
2018-09-15T04:45:48.288Z,86.50
2018-09-15T04:48:19.173Z,86.60
2018-09-15T04:50:50.119Z,86.80
2018-09-15T04:53:20.920Z,87.10
2018-09-15T04:55:51.848Z,86.90
2018-09-15T04:58:22.766Z,86.90
2018-09-15T05:00:53.691Z,86.50
2018-09-15T05:03:24.564Z,86.50
2018-09-15T05:05:55.582Z,86.10
2018-09-15T05:08:26.361Z,86.30
2018-09-15T05:10:57.225Z,85.80
2018-09-15T05:13:28.108Z,86.00
2018-09-15T05:15:58.952Z,86.00
2018-09-15T05:18:29.804Z,85.60
2018-09-15T05:21:00.962Z,85.00
2018-09-15T05:23:31.964Z,84.90
2018-09-15T05:26:02.822Z,84.50
2018-09-15T05:28:33.755Z,84.30
2018-09-15T05:31:04.560Z,84.30
2018-09-15T05:33:35.384Z,84.10
2018-09-15T05:36:06.228Z,84.50
2018-09-15T05:38:37.000Z,84.60
2018-09-15T05:41:07.848Z,84.30
2018-09-15T05:43:38.664Z,83.80
2018-09-15T05:46:09.504Z,83.40
2018-09-15T05:48:40.288Z,83.40
2018-09-15T05:51:11.133Z,82.60
2018-09-15T05:53:41.976Z,80.70
2018-09-15T05:56:12.902Z,79.60
2018-09-15T05:58:43.727Z,78.80
2018-09-15T06:01:14.658Z,78.20
2018-09-15T06:03:45.479Z,76.10
2018-09-15T06:06:16.334Z,74.90
2018-09-15T06:08:47.171Z,74.00
2018-09-15T06:11:17.996Z,74.00
2018-09-15T06:13:48.901Z,72.80
2018-09-15T06:16:19.676Z,71.50
2018-09-15T06:18:50.846Z,69.80
2018-09-15T06:21:21.717Z,67.00
2018-09-15T06:23:52.569Z,67.80
2018-09-15T06:26:23.467Z,66.80
2018-09-15T06:28:54.411Z,65.60
2018-09-15T06:31:25.341Z,64.30
2018-09-15T06:33:56.265Z,61.70
2018-09-15T06:36:27.089Z,60.00
2018-09-15T06:38:57.949Z,60.30
2018-09-15T06:41:28.876Z,61.40
2018-09-15T06:43:59.717Z,60.80
2018-09-15T06:46:30.632Z,58.90
2018-09-15T06:49:01.441Z,57.10
2018-09-15T06:51:32.363Z,55.90
2018-09-15T06:54:03.156Z,53.70
2018-09-15T06:56:34.125Z,52.50
2018-09-15T06:59:05.106Z,52.20
2018-09-15T07:01:39.321Z,52.50
2018-09-15T07:04:12.133Z,51.00
2018-09-15T07:06:43.371Z,49.80
2018-09-15T07:09:15.074Z,48.60
2018-09-15T07:11:45.936Z,49.00
2018-09-15T07:14:16.813Z,48.80
2018-09-15T07:16:48.109Z,48.30
2018-09-15T07:19:19.080Z,48.30
2018-09-15T07:21:50.304Z,48.10
2018-09-15T07:24:21.156Z,46.90
2018-09-15T07:26:52.083Z,46.30
2018-09-15T07:29:22.898Z,46.30
2018-09-15T07:31:53.876Z,45.80
2018-09-15T07:34:24.964Z,46.00
2018-09-15T07:36:55.859Z,45.80
2018-09-15T07:39:26.781Z,45.00
2018-09-15T07:41:57.691Z,44.10
2018-09-15T07:44:28.496Z,43.20
2018-09-15T07:46:59.407Z,42.00
2018-09-15T07:49:30.283Z,41.90
2018-09-15T07:52:01.103Z,41.10
2018-09-15T07:54:31.949Z,40.10
2018-09-15T07:57:02.873Z,40.40
2018-09-15T07:59:33.743Z,40.60
2018-09-15T08:02:08.656Z,40.80
2018-09-15T08:04:40.908Z,40.50
2018-09-15T08:07:12.110Z,39.70
2018-09-15T08:09:43.075Z,39.30
2018-09-15T08:12:14.097Z,40.00
2018-09-15T08:14:44.952Z,39.20
2018-09-15T08:17:15.851Z,39.30
2018-09-15T08:19:46.707Z,39.20
2018-09-15T08:22:17.564Z,39.60
2018-09-15T08:24:48.453Z,40.00
2018-09-15T08:27:19.290Z,40.50
2018-09-15T08:29:50.120Z,41.00
2018-09-15T08:32:21.125Z,41.40
2018-09-15T08:34:52.025Z,40.70
2018-09-15T08:37:22.869Z,40.10
2018-09-15T08:39:54.111Z,40.20
2018-09-15T08:42:24.983Z,40.30
2018-09-15T08:44:55.966Z,41.00
2018-09-15T08:47:26.916Z,41.20
2018-09-15T08:49:57.888Z,40.00
2018-09-15T08:52:28.841Z,39.00
2018-09-15T08:54:59.812Z,37.80
2018-09-15T08:57:30.675Z,38.00
2018-09-15T09:00:01.646Z,37.50
2018-09-15T09:02:34.000Z,36.40
2018-09-15T09:05:08.226Z,35.70
2018-09-15T09:07:39.042Z,35.20
2018-09-15T09:10:10.044Z,35.60
2018-09-15T09:12:44.758Z,35.20
2018-09-15T09:15:15.662Z,34.40
2018-09-15T09:17:58.126Z,33.90
2018-09-15T09:20:30.271Z,34.20
2018-09-15T09:23:01.138Z,33.70
2018-09-15T09:25:32.013Z,34.20
2018-09-15T09:28:02.840Z,34.40
2018-09-15T09:30:34.094Z,35.30
2018-09-15T09:33:05.101Z,35.50
2018-09-15T09:35:35.944Z,35.40
2018-09-15T09:38:07.024Z,35.60
2018-09-15T09:40:37.868Z,35.00
2018-09-15T09:43:08.812Z,33.60
2018-09-15T09:45:39.787Z,34.00
2018-09-15T09:48:12.247Z,34.60
2018-09-15T09:50:43.126Z,33.90
2018-09-15T09:53:14.026Z,33.60
2018-09-15T09:55:44.956Z,33.00
2018-09-15T09:58:15.752Z,33.60
2018-09-15T10:00:51.810Z,34.60
2018-09-15T10:03:22.737Z,33.50
2018-09-15T10:05:53.684Z,33.10
2018-09-15T10:08:24.688Z,34.00
2018-09-15T10:10:55.647Z,33.00
2018-09-15T10:13:26.619Z,32.30
2018-09-15T10:15:57.531Z,32.30
2018-09-15T10:18:28.344Z,32.60
2018-09-15T10:20:59.230Z,33.20
2018-09-15T10:23:30.114Z,32.80
2018-09-15T10:26:00.974Z,33.00
2018-09-15T10:28:31.849Z,33.80
2018-09-15T10:31:02.942Z,33.00
2018-09-15T10:33:33.730Z,33.20
2018-09-15T10:36:04.648Z,33.10
2018-09-15T10:38:35.504Z,33.80
2018-09-15T10:41:06.384Z,33.60
2018-09-15T10:50:41.385Z,32.90
2018-09-15T10:53:12.367Z,32.40
2018-09-15T10:55:44.094Z,33.00
2018-09-15T10:58:15.766Z,34.10
2018-09-15T11:00:46.767Z,33.60
2018-09-15T11:03:17.523Z,33.50
2018-09-15T11:05:48.573Z,33.40
2018-09-15T11:08:19.333Z,32.70
2018-09-15T11:10:50.179Z,32.30
2018-09-15T11:13:21.061Z,32.70
2018-09-15T11:15:51.996Z,32.70
2018-09-15T11:18:22.858Z,32.50
2018-09-15T11:20:53.717Z,33.10
2018-09-15T11:23:24.548Z,33.10
2018-09-15T11:25:55.637Z,33.00
2018-09-15T11:28:26.508Z,33.60
2018-09-15T11:30:57.410Z,33.80
2018-09-15T11:33:28.455Z,35.50
2018-09-15T11:35:59.393Z,34.60
2018-09-15T11:38:30.384Z,34.40
2018-09-15T11:41:01.266Z,36.10
2018-09-15T11:43:32.189Z,35.80
2018-09-15T11:46:03.050Z,35.70
2018-09-15T11:48:33.910Z,36.30
2018-09-15T11:51:04.849Z,36.30
2018-09-15T11:53:36.851Z,36.40
2018-09-15T11:56:08.341Z,36.20
2018-09-15T11:58:39.387Z,35.90
2018-09-15T12:01:11.142Z,35.70
2018-09-15T12:03:42.904Z,36.40
2018-09-15T12:06:14.150Z,36.30
2018-09-15T12:08:45.363Z,36.30
2018-09-15T12:11:16.998Z,36.30
2018-09-15T12:13:48.536Z,36.50
2018-09-15T12:16:19.594Z,37.10
2018-09-15T12:18:50.851Z,37.70
2018-09-15T12:21:21.803Z,38.80
2018-09-15T12:23:52.865Z,39.20
2018-09-15T12:26:23.926Z,39.80
2018-09-15T12:28:54.989Z,39.60
2018-09-15T12:31:25.975Z,39.80
2018-09-15T12:33:56.976Z,40.10
2018-09-15T12:36:28.234Z,40.40
2018-09-15T12:38:59.402Z,40.40
2018-09-15T12:41:30.263Z,40.50
2018-09-15T12:44:01.196Z,41.10
2018-09-15T12:46:32.564Z,40.80
2018-09-15T12:49:03.505Z,41.10
2018-09-15T12:51:34.821Z,41.50
2018-09-15T12:54:05.745Z,41.10
2018-09-15T12:56:37.035Z,41.10
2018-09-15T12:59:08.108Z,41.50
2018-09-15T13:01:39.235Z,41.80
2018-09-15T13:04:10.611Z,41.70
2018-09-15T13:06:41.668Z,41.50
2018-09-15T13:09:13.976Z,41.90
2018-09-15T13:11:45.509Z,41.90
2018-09-15T13:14:16.837Z,42.40
2018-09-15T13:16:48.231Z,42.60
2018-09-15T13:19:20.486Z,43.70
2018-09-15T13:21:53.239Z,43.80
2018-09-15T13:24:24.177Z,43.20
2018-09-15T13:26:55.176Z,43.60
2018-09-15T13:29:26.431Z,43.60
2018-09-15T13:31:57.443Z,44.70
2018-09-15T13:34:28.850Z,44.90
2018-09-15T13:36:59.728Z,45.00
2018-09-15T13:39:30.640Z,44.30
2018-09-15T13:42:01.455Z,44.70
2018-09-15T13:44:32.257Z,44.70
2018-09-15T13:47:03.171Z,45.10
2018-09-15T13:49:34.088Z,45.20
2018-09-15T13:52:04.991Z,45.40
2018-09-15T13:54:35.968Z,45.60
2018-09-15T13:57:06.868Z,45.60
2018-09-15T13:59:37.690Z,46.30
2018-09-15T14:02:08.662Z,46.30
2018-09-15T14:04:39.520Z,45.70
2018-09-15T14:07:10.506Z,46.10
2018-09-15T14:09:43.624Z,46.20
2018-09-15T14:12:12.191Z,46.30
2018-09-15T14:14:43.153Z,46.20
2018-09-15T14:17:14.084Z,46.30
2018-09-15T14:19:44.973Z,45.10
2018-09-15T14:22:15.847Z,45.30
2018-09-15T14:24:46.661Z,46.30
2018-09-15T14:27:17.511Z,46.20
2018-09-15T14:29:49.441Z,46.50
2018-09-15T14:32:21.728Z,46.90
2018-09-15T14:34:52.645Z,47.70
2018-09-15T14:37:23.465Z,46.90
2018-09-15T14:39:55.344Z,47.90
2018-09-15T14:42:26.312Z,47.70
2018-09-15T14:44:57.150Z,48.10
2018-09-15T14:47:28.315Z,47.80
2018-09-15T14:49:59.188Z,47.80
2018-09-15T14:52:30.072Z,47.30
2018-09-15T14:55:01.197Z,47.50
2018-09-15T14:57:32.015Z,48.00
2018-09-15T15:00:02.843Z,47.50
2018-09-15T15:02:33.812Z,47.20
2018-09-15T15:05:04.685Z,47.70
2018-09-15T15:07:39.967Z,48.10
2018-09-15T15:10:10.745Z,48.40
2018-09-15T15:12:41.581Z,48.20
2018-09-15T15:15:12.510Z,49.30
2018-09-15T15:17:43.340Z,50.20
2018-09-15T15:20:14.195Z,50.80
2018-09-15T15:22:45.043Z,51.40
2018-09-15T15:25:15.905Z,51.70
2018-09-15T15:27:46.816Z,52.30
2018-09-15T15:30:17.739Z,52.60
2018-09-15T15:32:48.532Z,52.60
2018-09-15T15:35:19.470Z,52.50
2018-09-15T15:37:50.411Z,52.50
2018-09-15T15:40:21.225Z,53.10
2018-09-15T15:42:52.085Z,53.00
2018-09-15T15:45:22.895Z,53.10
2018-09-15T15:47:53.979Z,53.50
2018-09-15T15:50:25.037Z,53.80
2018-09-15T15:52:55.872Z,54.40
2018-09-15T15:55:26.754Z,54.20
2018-09-15T15:57:57.618Z,54.30
2018-09-15T16:00:28.495Z,54.30
2018-09-15T16:03:00.009Z,54.50
2018-09-15T16:05:30.863Z,54.20
2018-09-15T16:08:01.783Z,54.20
2018-09-15T16:10:32.637Z,54.10
2018-09-15T16:13:03.717Z,53.70
2018-09-15T16:15:34.656Z,53.60
2018-09-15T16:18:05.639Z,53.60
2018-09-15T16:20:36.498Z,53.90
2018-09-15T16:23:07.461Z,54.10
2018-09-15T16:25:38.668Z,53.70
2018-09-15T16:28:09.542Z,54.00
2018-09-15T16:30:40.512Z,53.90
2018-09-15T16:33:11.376Z,54.50
2018-09-15T16:35:42.339Z,54.50
2018-09-15T16:38:13.273Z,54.00
2018-09-15T16:40:44.316Z,53.80
2018-09-15T16:43:15.570Z,53.70
2018-09-15T16:45:46.612Z,53.60
2018-09-15T16:48:17.530Z,53.20
2018-09-15T16:50:48.499Z,53.60
2018-09-15T16:53:19.487Z,53.30
2018-09-15T16:55:50.574Z,53.60
2018-09-15T16:58:21.456Z,54.00
2018-09-15T17:00:52.487Z,53.70
2018-09-15T17:03:23.400Z,53.80
2018-09-15T17:05:54.268Z,53.70
2018-09-15T17:08:25.207Z,54.20
2018-09-15T17:10:56.328Z,54.20
2018-09-15T17:13:27.298Z,54.40
2018-09-15T17:15:58.119Z,54.70
2018-09-15T17:18:28.972Z,54.80
2018-09-15T17:20:59.791Z,55.10
2018-09-15T17:23:30.748Z,54.60
2018-09-15T17:26:01.590Z,55.40
2018-09-15T17:28:32.588Z,55.60
2018-09-15T17:31:03.534Z,55.40
2018-09-15T17:33:34.377Z,56.20
2018-09-15T17:36:05.258Z,56.30
2018-09-15T17:38:36.208Z,56.00
2018-09-15T17:41:07.217Z,56.60
2018-09-15T17:43:38.219Z,56.10
2018-09-15T17:46:09.115Z,56.20
2018-09-15T17:48:40.011Z,56.80
2018-09-15T17:51:10.870Z,57.10
2018-09-15T17:53:42.013Z,57.00
2018-09-15T17:56:13.178Z,56.90
2018-09-15T17:58:44.071Z,57.10
2018-09-15T18:01:15.031Z,57.30
2018-09-15T18:03:45.952Z,57.60
2018-09-15T18:06:16.815Z,57.80
2018-09-15T18:08:47.726Z,58.30
2018-09-15T18:11:19.648Z,58.60
2018-09-15T18:13:50.718Z,59.10
2018-09-15T18:16:21.645Z,59.40
2018-09-15T18:18:52.637Z,59.70
2018-09-15T18:21:23.839Z,59.70
2018-09-15T18:23:54.748Z,59.90
2018-09-15T18:26:25.740Z,59.80
2018-09-15T18:28:57.007Z,59.50
2018-09-15T18:31:27.956Z,59.30
2018-09-15T18:33:59.160Z,59.50
2018-09-15T18:36:30.239Z,59.70
2018-09-15T18:39:01.138Z,60.10
2018-09-15T18:41:32.227Z,60.20
2018-09-15T18:44:03.081Z,60.30
2018-09-15T18:46:33.978Z,60.40
2018-09-15T18:49:05.806Z,60.20
2018-09-15T18:51:36.701Z,60.50
2018-09-15T18:54:07.740Z,61.40
2018-09-15T18:56:38.734Z,61.50
2018-09-15T18:59:09.674Z,61.70
2018-09-15T19:01:40.931Z,62.10
2018-09-15T19:04:11.992Z,62.40
2018-09-15T19:06:42.911Z,62.40
2018-09-15T19:09:13.797Z,62.50
2018-09-15T19:11:44.766Z,62.70
2018-09-15T19:14:15.732Z,63.20
2018-09-15T19:16:46.750Z,62.70
2018-09-15T19:19:17.676Z,62.90
2018-09-15T19:21:48.949Z,62.90
2018-09-15T19:24:19.960Z,62.90
2018-09-15T19:26:51.094Z,63.70
2018-09-15T19:29:22.037Z,63.60
2018-09-15T19:31:53.056Z,63.30
2018-09-15T19:34:23.950Z,64.70
2018-09-15T19:36:55.109Z,63.80
2018-09-15T19:39:26.476Z,64.20
2018-09-15T19:41:57.416Z,65.00
2018-09-15T19:44:28.720Z,64.10
2018-09-15T19:46:59.783Z,64.60
2018-09-15T19:49:30.853Z,64.70
2018-09-15T19:52:01.882Z,64.50
2018-09-15T19:54:32.855Z,64.40
2018-09-15T19:57:03.930Z,64.70
2018-09-15T19:59:34.883Z,65.00
2018-09-15T20:02:06.054Z,65.40
2018-09-15T20:04:36.995Z,65.90
2018-09-15T20:07:07.965Z,66.10
2018-09-15T20:09:38.994Z,65.20
2018-09-15T20:12:10.011Z,66.40
2018-09-15T20:14:40.997Z,65.60
2018-09-15T20:17:09.639Z,65.50
2018-09-15T20:19:38.388Z,65.70
2018-09-15T20:22:09.342Z,65.90
2018-09-15T20:24:40.339Z,66.10
2018-09-15T20:27:11.235Z,66.10
2018-09-15T20:29:42.176Z,66.60
2018-09-15T20:32:13.226Z,66.50
2018-09-15T20:34:44.498Z,66.60
2018-09-15T20:37:15.368Z,66.10
2018-09-15T20:39:46.311Z,66.30
2018-09-15T20:42:17.211Z,66.20
2018-09-15T20:44:48.084Z,65.90
2018-09-15T20:47:18.948Z,66.00
2018-09-15T20:49:49.892Z,66.10
2018-09-15T20:52:20.758Z,66.10
2018-09-15T20:54:51.595Z,66.40
2018-09-15T20:57:22.604Z,66.50
2018-09-15T20:59:53.365Z,66.80
2018-09-15T21:02:24.308Z,66.50
2018-09-15T21:04:55.180Z,67.30
2018-09-15T21:07:26.091Z,66.50
2018-09-15T21:09:56.960Z,66.50
2018-09-15T21:12:27.849Z,67.00
2018-09-15T21:14:58.732Z,66.90
2018-09-15T21:17:29.625Z,66.80
2018-09-15T21:20:00.493Z,66.60
2018-09-15T21:22:31.476Z,67.00
2018-09-15T21:25:02.350Z,67.10
2018-09-15T21:27:33.190Z,67.20
2018-09-15T21:30:04.074Z,67.40
2018-09-15T21:32:34.993Z,68.30
2018-09-15T21:35:06.000Z,67.40
2018-09-15T21:37:36.940Z,67.30
2018-09-15T21:40:08.427Z,67.50
2018-09-15T21:42:39.253Z,67.40
2018-09-15T21:45:10.123Z,67.60
2018-09-15T21:47:41.017Z,69.00
2018-09-15T21:50:11.843Z,67.60
2018-09-15T21:52:42.712Z,67.90
2018-09-15T21:55:13.581Z,67.50
2018-09-15T21:57:44.575Z,67.20
2018-09-15T22:00:15.472Z,68.00
2018-09-15T22:02:46.371Z,68.00
2018-09-15T22:05:17.305Z,68.40
2018-09-15T22:07:48.197Z,68.50
2018-09-15T22:10:19.997Z,68.60
2018-09-15T22:12:50.932Z,68.80
2018-09-15T22:15:26.713Z,68.40
2018-09-15T22:17:59.037Z,69.30
2018-09-15T22:20:29.934Z,69.00
2018-09-15T22:23:00.787Z,69.20
2018-09-15T22:25:31.550Z,69.10
2018-09-15T22:28:02.471Z,68.50
2018-09-15T22:30:33.241Z,68.60
2018-09-15T22:33:04.103Z,68.40
2018-09-15T22:35:34.954Z,68.40
2018-09-15T22:38:05.843Z,68.70
2018-09-15T22:40:36.704Z,68.90
2018-09-15T22:43:07.681Z,68.50
2018-09-15T22:45:38.516Z,68.50
2018-09-15T22:48:09.358Z,68.80
2018-09-15T22:50:40.219Z,68.80
2018-09-15T22:53:11.080Z,69.10
2018-09-15T22:55:42.044Z,68.30
2018-09-15T22:58:12.917Z,68.00
2018-09-15T23:00:45.298Z,68.00
2018-09-15T23:03:16.145Z,68.50
2018-09-15T23:05:47.112Z,68.40
2018-09-15T23:08:18.066Z,69.00
2018-09-15T23:10:48.832Z,69.10
2018-09-15T23:13:19.657Z,69.20
2018-09-15T23:15:50.759Z,69.30
2018-09-15T23:18:21.608Z,69.70
2018-09-15T23:20:52.866Z,70.10
2018-09-15T23:23:23.863Z,70.10
2018-09-15T23:25:54.769Z,70.20
2018-09-15T23:28:25.601Z,70.10
2018-09-15T23:30:56.444Z,69.20
2018-09-15T23:33:27.356Z,69.10
2018-09-15T23:35:58.361Z,68.80
2018-09-15T23:38:29.201Z,68.80
2018-09-15T23:41:00.060Z,69.00
2018-09-15T23:43:30.845Z,68.20
2018-09-15T23:46:01.672Z,68.60
2018-09-15T23:48:32.520Z,69.10
2018-09-15T23:51:03.331Z,68.00
2018-09-15T23:53:34.140Z,67.10
2018-09-15T23:56:04.985Z,67.60
2018-09-15T23:58:35.896Z,68.00
